Aviation Digital Data Service (ADDS)

Output produced by TAFs form (1309 UTC 21 April 2015)
found at http://aviationweather.gov/adds/tafs/
 
KDRO 211120Z 2112/2212 00000KT P6SM SKC 
     FM211400 VRB03KT P6SM FEW250 
     FM211800 26015G25KT P6SM FEW120 SCT250 
     FM220200 26004KT P6SM SCT150 
     FM220700 VRB03KT P6SM BKN150